Estación Meteorológica Peña el Pijo (Robertgarden) [ 02/21/18 08:28:06 CET ]

Fecha Hora Presion(HPa) Temp (°C) Humedad % Rocio (°C) Viento ( m/s) Direccion Lluvia 1Hora(mm) Lluvia 24H(mm) LLuvia Total(mm)
2018-Feb-10 01:01:45 1007.700 2.3 68 -3.0         76.66
2018-Feb-10 02:03:10 1007.400 2.4 68 -2.9         76.66
2018-Feb-10 03:01:45 1007.700 2.1 69 -3.0         76.66
2018-Feb-10 04:01:41 1007.100 1.9 70 -3.0         76.66
2018-Feb-10 05:01:39 1006.100 1.5 71 -3.2         76.66
2018-Feb-10 06:01:56 1006.200 1.9 71 -2.8 2.5 NW     76.66
2018-Feb-10 07:01:30 1006.800 2.2 69 -2.9 2.6 N     76.66
2018-Feb-10 08:01:39 1007.100 1.8 69 -3.3         76.66
2018-Feb-10 09:01:39 1007.700 1.6 70 -3.3         76.66
2018-Feb-10 10:01:22 1008.300 2.1 67 -3.4         76.66
2018-Feb-10 11:01:33 1008.500 3.1 57 -4.6         76.66
2018-Feb-10 12:01:54 1008.400 4.5 50 -5.1         76.66
2018-Feb-10 13:01:23 1007.900 5.3 48 -4.9         76.66
2018-Feb-10 14:01:27 1007.100 6.5 45 -4.6         76.66
2018-Feb-10 15:01:49 1007.000 8.7 39 -4.5         76.66
2018-Feb-10 16:01:52 1006.800 7.2 44 -4.3 0.7 E     76.66
2018-Feb-10 17:01:35 1006.800 6.1 46 -4.7 1.2 ENE     76.66
2018-Feb-10 18:01:53 1006.800 4.1 51 -5.2         76.66
2018-Feb-10 19:01:45 1007.300 2.8 55 -5.4         76.66
2018-Feb-10 20:01:47 1008.100 2.3 58 -5.1         76.66
2018-Feb-10 21:01:53 1008.600 1.9 61 -4.8         76.66
2018-Feb-10 22:01:51 1009.000 1.4 63 -4.9         76.66
2018-Feb-10 23:02:07 1009.000 1.6 64 -4.5         76.66

Temperatura Máxima:    Temperatura Mínima:
Presión Máxima:1009.000 Hpa    Presión Mínima:1006.100 Hpa


Volver